createdAt,value
2023-02-02T00:00:45.653Z,5.80
2023-02-02T00:01:45.646Z,5.79
2023-02-02T00:02:45.718Z,5.79
2023-02-02T00:03:45.669Z,5.80
2023-02-02T00:04:45.636Z,5.82
2023-02-02T00:05:45.614Z,5.85
2023-02-02T00:06:45.616Z,5.84
2023-02-02T00:07:45.624Z,5.80
2023-02-02T00:08:45.584Z,5.77
2023-02-02T00:09:45.578Z,5.80
2023-02-02T00:10:45.557Z,5.77
2023-02-02T00:11:45.549Z,5.82
2023-02-02T00:12:45.548Z,5.76
2023-02-02T00:13:45.528Z,5.84
2023-02-02T00:14:45.529Z,5.87
2023-02-02T00:15:45.530Z,5.87
2023-02-02T00:16:45.512Z,5.88
2023-02-02T00:17:45.480Z,5.80
2023-02-02T00:18:45.477Z,5.90
2023-02-02T00:19:45.459Z,5.94
2023-02-02T00:20:45.479Z,5.88
2023-02-02T00:21:45.451Z,6.00
2023-02-02T00:22:45.443Z,6.02
2023-02-02T00:23:45.422Z,6.02
2023-02-02T00:24:45.407Z,5.97
2023-02-02T00:25:45.417Z,6.06
2023-02-02T00:26:45.444Z,6.11
2023-02-02T00:27:45.383Z,5.98
2023-02-02T00:28:45.387Z,5.95
2023-02-02T00:29:45.361Z,5.98
2023-02-02T00:30:45.384Z,6.03
2023-02-02T00:31:45.438Z,6.06
2023-02-02T00:32:45.328Z,6.15
2023-02-02T00:33:45.322Z,6.18
2023-02-02T00:34:45.327Z,6.15
2023-02-02T00:35:45.298Z,6.11
2023-02-02T00:36:45.303Z,6.09
2023-02-02T00:37:45.278Z,6.06
2023-02-02T00:38:45.260Z,6.08
2023-02-02T00:39:45.246Z,6.05
2023-02-02T00:40:45.237Z,6.06
2023-02-02T00:41:45.234Z,5.97
2023-02-02T00:42:45.230Z,6.06
2023-02-02T00:43:45.212Z,6.11
2023-02-02T00:44:45.200Z,6.18
2023-02-02T00:45:45.235Z,6.12
2023-02-02T00:46:45.176Z,6.21
2023-02-02T00:47:45.181Z,6.12
2023-02-02T00:48:45.161Z,6.16
2023-02-02T00:49:45.148Z,6.15
2023-02-02T00:50:45.130Z,6.09
2023-02-02T00:51:45.125Z,6.00
2023-02-02T00:52:45.131Z,6.13
2023-02-02T00:53:45.112Z,6.11
2023-02-02T00:54:45.080Z,6.00
2023-02-02T00:55:45.072Z,6.12
2023-02-02T00:56:45.069Z,6.16
2023-02-02T00:57:45.066Z,6.12
2023-02-02T00:58:45.058Z,6.09
2023-02-02T00:59:45.045Z,6.16
2023-02-02T01:00:45.041Z,6.15
2023-02-02T01:01:45.035Z,6.15
2023-02-02T01:02:45.001Z,6.06
2023-02-02T01:03:45.021Z,6.13
2023-02-02T01:04:44.993Z,6.12
2023-02-02T01:05:44.971Z,6.19
2023-02-02T01:06:44.961Z,6.11
2023-02-02T01:07:44.952Z,6.13
2023-02-02T01:08:44.949Z,6.25
2023-02-02T01:09:44.937Z,6.31
2023-02-02T01:10:44.915Z,6.25
2023-02-02T01:11:44.912Z,6.25
2023-02-02T01:12:44.891Z,6.21
2023-02-02T01:13:44.888Z,6.30
2023-02-02T01:14:44.896Z,6.32
2023-02-02T01:15:44.863Z,6.25
2023-02-02T01:16:44.888Z,6.32
2023-02-02T01:17:44.846Z,6.30
2023-02-02T01:18:44.840Z,6.31
2023-02-02T01:19:44.866Z,6.21
2023-02-02T01:20:44.817Z,6.11
2023-02-02T01:21:44.791Z,6.16
2023-02-02T01:22:44.788Z,6.24
2023-02-02T01:23:44.775Z,6.05
2023-02-02T01:24:44.760Z,6.19
2023-02-02T01:25:44.763Z,6.13
2023-02-02T01:26:44.778Z,6.18
2023-02-02T01:27:44.745Z,6.21
2023-02-02T01:28:44.712Z,6.13
2023-02-02T01:29:44.715Z,6.12
2023-02-02T01:30:44.729Z,6.16
2023-02-02T01:31:44.719Z,6.13
2023-02-02T01:32:44.675Z,6.12
2023-02-02T01:33:44.670Z,6.13
2023-02-02T01:34:44.658Z,6.16
2023-02-02T01:35:44.684Z,6.02
2023-02-02T01:36:44.639Z,5.97
2023-02-02T01:37:44.619Z,5.90
2023-02-02T01:38:44.604Z,5.91
2023-02-02T01:39:44.592Z,5.93
2023-02-02T01:40:44.601Z,6.06
2023-02-02T01:41:44.588Z,6.03
2023-02-02T01:42:44.575Z,6.02
2023-02-02T01:43:44.564Z,5.98
2023-02-02T01:44:44.562Z,6.00
2023-02-02T01:45:44.569Z,6.15
2023-02-02T01:46:44.530Z,6.16
2023-02-02T01:47:44.523Z,6.12
2023-02-02T01:48:44.505Z,6.13
2023-02-02T01:49:44.486Z,6.18
2023-02-02T01:50:44.497Z,6.19
2023-02-02T01:51:44.493Z,6.21
2023-02-02T01:52:44.462Z,6.13
2023-02-02T01:53:44.455Z,6.13
2023-02-02T01:54:44.452Z,6.13
2023-02-02T01:55:44.429Z,6.13
2023-02-02T01:56:44.421Z,6.21
2023-02-02T01:57:44.401Z,6.18
2023-02-02T01:58:44.403Z,6.16
2023-02-02T01:59:44.388Z,6.08
2023-02-02T02:00:46.141Z,6.15
2023-02-02T02:01:44.363Z,6.15
2023-02-02T02:02:44.491Z,6.18
2023-02-02T02:03:44.367Z,6.19
2023-02-02T02:04:44.326Z,6.12
2023-02-02T02:05:44.367Z,6.15
2023-02-02T02:06:44.309Z,6.15
2023-02-02T02:07:44.316Z,6.19
2023-02-02T02:08:44.280Z,6.16
2023-02-02T02:09:44.285Z,6.11
2023-02-02T02:10:44.266Z,6.13
2023-02-02T02:11:44.266Z,6.18
2023-02-02T02:12:44.247Z,6.06
2023-02-02T02:13:44.229Z,5.98
2023-02-02T02:14:44.239Z,6.05
2023-02-02T02:15:44.213Z,6.11
2023-02-02T02:16:44.213Z,6.13
2023-02-02T02:17:44.184Z,6.08
2023-02-02T02:18:44.185Z,6.02
2023-02-02T02:19:44.160Z,6.03
2023-02-02T02:20:44.163Z,6.03
2023-02-02T02:21:44.161Z,5.98
2023-02-02T02:22:44.133Z,6.05
2023-02-02T02:23:44.156Z,6.16
2023-02-02T02:24:44.131Z,6.08
2023-02-02T02:25:44.106Z,6.18
2023-02-02T02:26:44.172Z,6.19
2023-02-02T02:27:44.087Z,6.24
2023-02-02T02:28:44.073Z,6.19
2023-02-02T02:29:44.061Z,6.31
2023-02-02T02:30:44.134Z,6.28
2023-02-02T02:31:44.119Z,6.27
2023-02-02T02:32:44.044Z,6.18
2023-02-02T02:33:44.019Z,6.19
2023-02-02T02:34:44.011Z,6.18
2023-02-02T02:35:44.011Z,6.24
2023-02-02T02:36:44.006Z,6.21
2023-02-02T02:37:43.992Z,6.24
2023-02-02T02:38:43.963Z,6.25
2023-02-02T02:39:43.982Z,6.12
2023-02-02T02:40:43.939Z,6.24
2023-02-02T02:41:43.950Z,6.18
2023-02-02T02:42:43.923Z,6.28
2023-02-02T02:43:43.921Z,6.09
2023-02-02T02:44:43.893Z,6.12
2023-02-02T02:45:43.885Z,6.15
2023-02-02T02:46:43.891Z,6.15
2023-02-02T02:47:43.883Z,6.11
2023-02-02T02:48:43.852Z,6.09
2023-02-02T02:49:43.847Z,6.11
2023-02-02T02:50:43.829Z,6.12
2023-02-02T02:51:43.819Z,6.13
2023-02-02T02:52:43.823Z,6.21
2023-02-02T02:53:43.799Z,6.12
2023-02-02T02:54:43.784Z,6.16
2023-02-02T02:55:43.795Z,6.11
2023-02-02T02:56:43.780Z,6.13
2023-02-02T02:57:43.769Z,6.08
2023-02-02T02:58:43.745Z,6.00
2023-02-02T02:59:43.730Z,6.03
2023-02-02T03:00:43.733Z,5.95
2023-02-02T03:01:43.737Z,5.93
2023-02-02T03:02:43.724Z,5.97
2023-02-02T03:03:43.711Z,5.93
2023-02-02T03:04:43.684Z,5.97
2023-02-02T03:05:43.695Z,5.93
2023-02-02T03:06:43.662Z,5.88
2023-02-02T03:07:43.659Z,5.80
2023-02-02T03:08:43.648Z,5.79
2023-02-02T03:09:43.655Z,5.67
2023-02-02T03:10:43.631Z,5.69
2023-02-02T03:11:43.623Z,5.65
2023-02-02T03:12:43.596Z,5.67
2023-02-02T03:13:43.591Z,5.59
2023-02-02T03:14:43.611Z,5.70
2023-02-02T03:15:43.571Z,5.57
2023-02-02T03:16:43.565Z,5.58
2023-02-02T03:17:43.538Z,5.58
2023-02-02T03:18:43.536Z,5.62
2023-02-02T03:19:43.530Z,5.61
2023-02-02T03:20:43.544Z,5.57
2023-02-02T03:21:43.508Z,5.66
2023-02-02T03:22:43.504Z,5.62
2023-02-02T03:23:43.483Z,5.69
2023-02-02T03:24:43.466Z,5.58
2023-02-02T03:25:43.465Z,5.61
2023-02-02T03:26:43.509Z,5.59
2023-02-02T03:27:43.456Z,5.65
2023-02-02T03:28:43.440Z,5.62
2023-02-02T03:29:43.441Z,5.70
2023-02-02T03:30:43.448Z,5.61
2023-02-02T03:31:43.433Z,5.58
2023-02-02T03:32:43.386Z,5.66
2023-02-02T03:33:43.370Z,5.69
2023-02-02T03:34:43.372Z,5.65
2023-02-02T03:35:43.369Z,5.55
2023-02-02T03:36:43.393Z,5.58
2023-02-02T03:37:43.338Z,5.65
2023-02-02T03:38:43.331Z,5.54
2023-02-02T03:39:43.318Z,5.57
2023-02-02T03:40:43.305Z,5.58
2023-02-02T03:41:43.293Z,5.65
2023-02-02T03:42:43.287Z,5.66
2023-02-02T03:43:43.284Z,5.65
2023-02-02T03:44:43.265Z,5.65
2023-02-02T03:45:43.272Z,5.67
2023-02-02T03:46:43.267Z,5.66
2023-02-02T03:47:43.234Z,5.70
2023-02-02T03:48:43.227Z,5.58
2023-02-02T03:49:43.215Z,5.58
2023-02-02T03:50:43.204Z,5.66
2023-02-02T03:51:43.213Z,5.70
2023-02-02T03:52:43.190Z,5.66
2023-02-02T03:53:43.168Z,5.69
2023-02-02T03:54:43.168Z,5.69
2023-02-02T03:55:43.155Z,5.75
2023-02-02T03:56:43.143Z,5.77
2023-02-02T03:57:43.130Z,5.76
2023-02-02T03:58:43.116Z,5.80
2023-02-02T03:59:43.136Z,5.65
2023-02-02T04:00:43.107Z,5.75
2023-02-02T04:01:43.148Z,5.76
2023-02-02T04:02:43.097Z,5.73
2023-02-02T04:03:43.075Z,5.75
2023-02-02T04:04:43.061Z,5.77
2023-02-02T04:05:43.053Z,5.77
2023-02-02T04:06:43.040Z,5.76
2023-02-02T04:07:43.015Z,5.82
2023-02-02T04:08:43.021Z,5.75
2023-02-02T04:09:43.026Z,5.80
2023-02-02T04:10:43.002Z,5.82
2023-02-02T04:11:42.996Z,5.76
2023-02-02T04:12:42.967Z,5.79
2023-02-02T04:13:42.967Z,5.79
2023-02-02T04:14:42.945Z,5.77
2023-02-02T04:15:42.976Z,5.90
2023-02-02T04:16:42.935Z,5.80
2023-02-02T04:17:42.933Z,5.90
2023-02-02T04:18:42.912Z,5.75
2023-02-02T04:19:42.923Z,5.76
2023-02-02T04:20:42.893Z,5.82
2023-02-02T04:21:42.885Z,5.80
2023-02-02T04:22:42.879Z,5.84
2023-02-02T04:23:42.861Z,5.72
2023-02-02T04:24:42.849Z,5.80
2023-02-02T04:25:42.860Z,5.90
2023-02-02T04:26:42.905Z,5.73
2023-02-02T04:27:42.824Z,5.85
2023-02-02T04:28:42.802Z,5.80
2023-02-02T04:29:42.807Z,5.75
2023-02-02T04:30:42.810Z,5.75
2023-02-02T04:31:42.840Z,5.76
2023-02-02T04:32:42.783Z,5.80
2023-02-02T04:33:42.755Z,5.82
2023-02-02T04:34:42.741Z,5.76
2023-02-02T04:35:42.742Z,5.87
2023-02-02T04:36:42.751Z,5.87
2023-02-02T04:37:42.719Z,5.91
2023-02-02T04:38:42.712Z,5.82
2023-02-02T04:39:42.698Z,5.93
2023-02-02T04:40:42.683Z,5.90
2023-02-02T04:41:42.673Z,5.94
2023-02-02T04:42:42.675Z,5.93
2023-02-02T04:43:42.648Z,5.91
2023-02-02T04:44:42.654Z,5.93
2023-02-02T04:45:42.857Z,5.90
2023-02-02T04:46:42.639Z,5.90
2023-02-02T04:47:42.631Z,5.97
2023-02-02T04:48:42.606Z,5.90
2023-02-02T04:49:42.604Z,5.90
2023-02-02T04:50:42.578Z,5.95
2023-02-02T04:51:42.561Z,5.94
2023-02-02T04:52:42.556Z,5.87
2023-02-02T04:53:42.571Z,5.85
2023-02-02T04:54:42.540Z,5.88
2023-02-02T04:55:42.541Z,5.90
2023-02-02T04:56:42.519Z,5.82
2023-02-02T04:57:42.501Z,5.90
2023-02-02T04:58:42.509Z,5.80
2023-02-02T04:59:42.643Z,5.84
2023-02-02T05:00:42.599Z,5.84
2023-02-02T05:01:42.479Z,5.77
2023-02-02T05:02:42.448Z,5.76
2023-02-02T05:03:42.464Z,5.73
2023-02-02T05:04:42.487Z,5.76
2023-02-02T05:05:42.416Z,5.75
2023-02-02T05:06:42.423Z,5.73
2023-02-02T05:07:42.419Z,5.75
2023-02-02T05:08:42.386Z,5.73
2023-02-02T05:09:42.376Z,5.75
2023-02-02T05:10:42.407Z,5.79
2023-02-02T05:11:42.371Z,5.75
2023-02-02T05:12:42.351Z,5.82
2023-02-02T05:13:42.333Z,5.73
2023-02-02T05:14:42.335Z,5.69
2023-02-02T05:15:42.319Z,5.75
2023-02-02T05:16:42.331Z,5.77
2023-02-02T05:17:42.290Z,5.80
2023-02-02T05:18:42.286Z,5.76
2023-02-02T05:19:42.299Z,5.75
2023-02-02T05:20:42.303Z,5.73
2023-02-02T05:21:42.245Z,5.62
2023-02-02T05:22:42.257Z,5.75
2023-02-02T05:23:42.244Z,5.75
2023-02-02T05:24:42.226Z,5.66
2023-02-02T05:25:42.208Z,5.77
2023-02-02T05:26:42.284Z,5.76
2023-02-02T05:27:42.202Z,5.88
2023-02-02T05:28:42.176Z,5.87
2023-02-02T05:29:42.166Z,5.91
2023-02-02T05:30:42.172Z,5.84
2023-02-02T05:31:42.203Z,5.79
2023-02-02T05:32:42.154Z,5.80
2023-02-02T05:33:42.124Z,5.88
2023-02-02T05:34:42.123Z,5.88
2023-02-02T05:35:42.122Z,5.88
2023-02-02T05:36:42.087Z,5.80
2023-02-02T05:37:42.079Z,5.87
2023-02-02T05:38:42.091Z,5.90
2023-02-02T05:39:42.048Z,5.90
2023-02-02T05:40:42.065Z,5.80
2023-02-02T05:41:42.030Z,5.87
2023-02-02T05:42:42.027Z,5.80
2023-02-02T05:43:42.049Z,5.88
2023-02-02T05:44:42.004Z,5.79
2023-02-02T05:45:42.021Z,5.88
2023-02-02T05:46:41.993Z,5.87
2023-02-02T05:47:41.979Z,5.91
2023-02-02T05:48:41.957Z,5.82
2023-02-02T05:49:41.956Z,5.87
2023-02-02T05:50:41.930Z,5.87
2023-02-02T05:51:41.939Z,5.75
2023-02-02T05:52:41.919Z,5.76
2023-02-02T05:53:41.897Z,5.79
2023-02-02T05:54:41.932Z,5.87
2023-02-02T05:55:41.886Z,5.84
2023-02-02T05:56:41.881Z,5.73
2023-02-02T05:57:41.864Z,5.76
2023-02-02T05:58:41.853Z,5.75
2023-02-02T05:59:41.850Z,5.80
2023-02-02T06:00:41.850Z,5.75
2023-02-02T06:01:41.825Z,5.75
2023-02-02T06:02:41.870Z,5.75
2023-02-02T06:03:41.858Z,5.75
2023-02-02T06:04:41.788Z,5.69
2023-02-02T06:05:41.780Z,5.72
2023-02-02T06:06:41.796Z,5.70
2023-02-02T06:07:41.767Z,5.72
2023-02-02T06:08:41.749Z,5.75
2023-02-02T06:09:41.738Z,5.75
2023-02-02T06:10:41.726Z,5.79
2023-02-02T06:11:41.707Z,5.76
2023-02-02T06:12:41.718Z,5.75
2023-02-02T06:13:41.700Z,5.62
2023-02-02T06:14:41.686Z,5.73
2023-02-02T06:15:41.704Z,5.79
2023-02-02T06:16:41.676Z,5.77
2023-02-02T06:17:41.663Z,5.80
2023-02-02T06:18:41.644Z,5.84
2023-02-02T06:19:41.625Z,5.79
2023-02-02T06:20:41.620Z,5.75
2023-02-02T06:21:41.614Z,5.77
2023-02-02T06:22:41.591Z,5.79
2023-02-02T06:23:41.610Z,5.79
2023-02-02T06:24:41.575Z,5.77
2023-02-02T06:25:41.574Z,5.88
2023-02-02T06:26:41.657Z,5.80
2023-02-02T06:27:41.545Z,5.90
2023-02-02T06:28:41.541Z,5.82
2023-02-02T06:29:41.529Z,5.85
2023-02-02T06:30:43.901Z,5.88
2023-02-02T06:31:41.644Z,5.90
2023-02-02T06:32:41.504Z,5.94
2023-02-02T06:33:41.486Z,5.94
2023-02-02T06:34:41.467Z,5.87
2023-02-02T06:35:41.467Z,5.79
2023-02-02T06:36:41.457Z,5.75
2023-02-02T06:37:41.441Z,5.75
2023-02-02T06:38:41.466Z,5.76
2023-02-02T06:39:41.434Z,5.77
2023-02-02T06:40:41.399Z,5.69
2023-02-02T06:41:41.417Z,5.82
2023-02-02T06:42:41.418Z,5.65
2023-02-02T06:43:41.398Z,5.69
2023-02-02T06:44:41.368Z,5.59
2023-02-02T06:45:41.357Z,5.59
2023-02-02T06:46:41.417Z,5.65
2023-02-02T06:47:41.325Z,5.50
2023-02-02T06:48:41.320Z,5.59
2023-02-02T06:49:41.322Z,5.59
2023-02-02T06:50:41.317Z,5.44
2023-02-02T06:51:41.296Z,5.55
2023-02-02T06:52:41.286Z,5.50
2023-02-02T06:53:41.265Z,5.57
2023-02-02T06:54:41.273Z,5.50
2023-02-02T06:55:41.270Z,5.52
2023-02-02T06:56:41.240Z,5.47
2023-02-02T06:57:41.225Z,5.50
2023-02-02T06:58:41.229Z,5.51
2023-02-02T06:59:41.210Z,5.39
2023-02-02T07:00:41.205Z,5.39
2023-02-02T07:01:41.270Z,5.58
2023-02-02T07:02:41.226Z,5.50
2023-02-02T07:03:41.176Z,5.52
2023-02-02T07:04:41.165Z,5.47
2023-02-02T07:05:41.156Z,5.51
2023-02-02T07:06:41.154Z,5.48
2023-02-02T07:07:41.124Z,5.55
2023-02-02T07:08:41.125Z,5.43
2023-02-02T07:09:41.116Z,5.61
2023-02-02T07:11:09.505Z,5.59
2023-02-02T07:11:43.194Z,5.61
2023-02-02T07:12:41.080Z,5.62
2023-02-02T07:13:41.065Z,5.59
2023-02-02T07:14:41.052Z,5.58
2023-02-02T07:15:41.112Z,5.55
2023-02-02T07:16:41.040Z,5.65
2023-02-02T07:17:41.015Z,5.59
2023-02-02T07:18:41.024Z,5.57
2023-02-02T07:19:40.993Z,5.61
2023-02-02T07:20:41.011Z,5.69
2023-02-02T07:21:41.004Z,5.59
2023-02-02T07:22:40.968Z,5.62
2023-02-02T07:23:40.962Z,5.73
2023-02-02T07:24:40.959Z,5.61
2023-02-02T07:25:43.588Z,5.67
2023-02-02T07:26:41.007Z,5.69
2023-02-02T07:27:40.950Z,5.62
2023-02-02T07:28:40.920Z,5.73
2023-02-02T07:29:40.905Z,5.72
2023-02-02T07:30:40.952Z,5.69
2023-02-02T07:31:41.013Z,5.79
2023-02-02T07:32:40.882Z,5.76
2023-02-02T07:33:40.856Z,5.79
2023-02-02T07:34:40.889Z,5.70
2023-02-02T07:35:40.836Z,5.66
2023-02-02T07:36:40.815Z,5.72
2023-02-02T07:37:40.830Z,5.76
2023-02-02T07:38:40.809Z,5.69
2023-02-02T07:39:40.785Z,5.80
2023-02-02T07:40:40.780Z,5.79
2023-02-02T07:41:40.774Z,5.70
2023-02-02T07:42:40.752Z,5.67
2023-02-02T07:43:40.778Z,5.82
2023-02-02T07:44:40.741Z,5.76
2023-02-02T07:45:41.124Z,5.70
2023-02-02T07:46:40.747Z,5.80
2023-02-02T07:47:40.702Z,5.73
2023-02-02T07:48:40.695Z,5.84
2023-02-02T07:49:40.700Z,5.79
2023-02-02T07:50:40.679Z,5.90
2023-02-02T07:51:44.316Z,5.90
2023-02-02T07:52:41.655Z,5.94
2023-02-02T07:53:40.665Z,5.95
2023-02-02T07:54:40.672Z,5.97
2023-02-02T07:55:40.627Z,5.97
2023-02-02T07:56:40.609Z,6.00
2023-02-02T07:57:40.598Z,6.06
2023-02-02T07:58:40.589Z,6.03
2023-02-02T07:59:40.627Z,6.02
2023-02-02T08:00:40.606Z,6.05
2023-02-02T08:01:40.610Z,5.97
2023-02-02T08:02:40.600Z,6.00
2023-02-02T08:03:40.540Z,6.00
2023-02-02T08:04:40.546Z,6.02
2023-02-02T08:05:40.519Z,5.95
2023-02-02T08:06:40.512Z,6.00
2023-02-02T08:07:40.508Z,5.98
2023-02-02T08:08:40.481Z,6.00
2023-02-02T08:09:40.482Z,6.03
2023-02-02T08:10:40.473Z,5.95
2023-02-02T08:11:40.459Z,6.02
2023-02-02T08:12:40.450Z,5.97
2023-02-02T08:13:40.428Z,5.94
2023-02-02T08:14:40.422Z,6.00
2023-02-02T08:15:40.460Z,5.93
2023-02-02T08:16:40.403Z,5.88
2023-02-02T08:17:40.385Z,5.97
2023-02-02T08:18:40.377Z,5.97
2023-02-02T08:19:40.369Z,6.00
2023-02-02T08:20:40.363Z,5.98
2023-02-02T08:21:40.361Z,5.98
2023-02-02T08:22:40.337Z,5.97
2023-02-02T08:23:40.349Z,6.03
2023-02-02T08:24:40.309Z,6.00
2023-02-02T08:25:40.296Z,6.00
2023-02-02T08:26:40.331Z,6.08
2023-02-02T08:27:40.276Z,6.09
2023-02-02T08:28:40.278Z,6.13
2023-02-02T08:29:40.264Z,6.18
2023-02-02T08:30:40.306Z,6.13
2023-02-02T08:31:40.316Z,6.16
2023-02-02T08:32:40.232Z,6.12
2023-02-02T08:33:40.219Z,6.16
2023-02-02T08:34:40.220Z,6.16
2023-02-02T08:35:40.192Z,6.12
2023-02-02T08:36:40.186Z,6.12
2023-02-02T08:37:40.179Z,6.09
2023-02-02T08:38:40.179Z,6.02
2023-02-02T08:39:40.152Z,5.98
2023-02-02T08:40:40.152Z,6.03
2023-02-02T08:41:40.181Z,6.02
2023-02-02T08:42:40.162Z,5.98
2023-02-02T08:43:40.139Z,6.16
2023-02-02T08:45:00.980Z,6.11
2023-02-02T08:46:03.947Z,6.02
2023-02-02T08:46:41.181Z,6.06
2023-02-02T08:47:40.089Z,6.02
2023-02-02T08:48:40.046Z,5.95
2023-02-02T08:49:40.037Z,5.95
2023-02-02T08:50:40.023Z,6.02
2023-02-02T08:51:40.034Z,5.98
2023-02-02T08:52:40.032Z,6.08
2023-02-02T08:53:39.994Z,6.03
2023-02-02T08:54:39.990Z,6.05
2023-02-02T08:55:39.976Z,6.05
2023-02-02T08:56:39.961Z,5.98
2023-02-02T08:57:40.072Z,5.98
2023-02-02T08:58:39.959Z,5.97
2023-02-02T08:59:39.939Z,5.91
2023-02-02T09:00:39.949Z,5.90
2023-02-02T09:01:39.910Z,5.97
2023-02-02T09:02:39.902Z,5.93
2023-02-02T09:03:39.916Z,6.08
2023-02-02T09:04:39.883Z,6.11
2023-02-02T09:05:39.888Z,6.15
2023-02-02T09:06:39.883Z,6.30
2023-02-02T09:07:39.876Z,6.38
2023-02-02T09:08:39.901Z,6.46
2023-02-02T09:09:39.827Z,6.52
2023-02-02T09:10:39.818Z,6.49
2023-02-02T09:11:39.793Z,6.63
2023-02-02T09:12:39.798Z,6.60
2023-02-02T09:13:39.806Z,6.60
2023-02-02T09:14:39.772Z,6.67
2023-02-02T09:15:39.756Z,6.60
2023-02-02T09:16:39.824Z,6.68
2023-02-02T09:17:39.776Z,6.73
2023-02-02T09:18:39.727Z,6.71
2023-02-02T09:19:39.735Z,6.82
2023-02-02T09:20:39.719Z,6.68
2023-02-02T09:21:39.714Z,6.79
2023-02-02T09:22:39.672Z,6.78
2023-02-02T09:23:39.673Z,6.73
2023-02-02T09:24:39.677Z,6.85
2023-02-02T09:25:39.650Z,6.93
2023-02-02T09:26:39.656Z,6.92
2023-02-02T09:27:39.632Z,6.93
2023-02-02T09:28:39.621Z,6.93
2023-02-02T09:29:39.602Z,6.96
2023-02-02T09:30:39.675Z,6.96
2023-02-02T09:31:39.605Z,6.91
2023-02-02T09:32:39.576Z,6.92
2023-02-02T09:33:39.575Z,6.88
2023-02-02T09:34:40.862Z,6.91
2023-02-02T09:35:39.556Z,6.82
2023-02-02T09:36:39.549Z,6.75
2023-02-02T09:37:39.521Z,6.83
2023-02-02T09:38:39.506Z,6.91
2023-02-02T09:39:39.495Z,6.92
2023-02-02T09:40:39.488Z,6.97
2023-02-02T09:41:39.501Z,6.93
2023-02-02T09:42:39.485Z,6.91
2023-02-02T09:43:39.474Z,6.89
2023-02-02T09:44:39.450Z,6.96
2023-02-02T09:45:39.531Z,6.91
2023-02-02T09:46:39.439Z,6.89
2023-02-02T09:47:39.415Z,6.85
2023-02-02T09:48:39.408Z,6.82
2023-02-02T09:49:39.406Z,6.82
2023-02-02T09:50:39.397Z,6.78
2023-02-02T09:51:39.422Z,6.81
2023-02-02T09:52:39.375Z,6.75
2023-02-02T09:53:53.177Z,6.83
2023-02-02T09:54:40.343Z,6.96
2023-02-02T09:55:39.347Z,7.11
2023-02-02T09:56:39.313Z,7.16
2023-02-02T09:57:39.318Z,7.19
2023-02-02T09:58:39.298Z,7.21
2023-02-02T09:59:39.291Z,7.26
2023-02-02T10:00:39.273Z,7.36
2023-02-02T10:01:39.307Z,7.34
2023-02-02T10:02:39.280Z,7.24
2023-02-02T10:03:39.308Z,7.22
2023-02-02T10:04:39.233Z,7.21
2023-02-02T10:05:39.228Z,7.21
2023-02-02T10:06:39.225Z,7.36
2023-02-02T10:07:39.238Z,7.37
2023-02-02T10:08:39.216Z,7.47
2023-02-02T10:09:39.188Z,7.44
2023-02-02T10:10:39.176Z,7.42
2023-02-02T10:11:39.292Z,7.34
2023-02-02T10:12:39.151Z,7.19
2023-02-02T10:13:39.233Z,7.28
2023-02-02T10:14:39.192Z,7.24
2023-02-02T10:15:39.160Z,7.22
2023-02-02T10:16:39.113Z,7.31
2023-02-02T10:17:39.097Z,7.36
2023-02-02T10:18:39.089Z,7.40
2023-02-02T10:19:39.071Z,7.37
2023-02-02T10:20:39.101Z,7.49
2023-02-02T10:21:39.060Z,7.42
2023-02-02T10:22:39.044Z,7.60
2023-02-02T10:23:39.067Z,7.66
2023-02-02T10:24:39.041Z,7.46
2023-02-02T10:25:39.011Z,7.44
2023-02-02T10:26:39.074Z,7.37
2023-02-02T10:27:39.000Z,7.29
2023-02-02T10:28:38.979Z,7.21
2023-02-02T10:29:48.608Z,7.19
2023-02-02T10:30:40.125Z,7.19
2023-02-02T10:31:39.049Z,7.18
2023-02-02T10:32:38.957Z,7.18
2023-02-02T10:33:38.924Z,7.07
2023-02-02T10:34:38.928Z,7.11
2023-02-02T10:35:38.903Z,7.08
2023-02-02T10:36:38.894Z,7.00
2023-02-02T10:37:38.880Z,7.03
2023-02-02T10:38:38.884Z,7.07
2023-02-02T10:39:38.938Z,7.21
2023-02-02T10:40:38.866Z,7.24
2023-02-02T10:41:38.843Z,7.40
2023-02-02T10:42:38.834Z,7.34
2023-02-02T10:43:38.810Z,7.33
2023-02-02T10:44:38.812Z,7.39
2023-02-02T10:45:38.803Z,7.34
2023-02-02T10:46:38.857Z,7.34
2023-02-02T10:47:38.782Z,7.33
2023-02-02T10:48:38.771Z,7.36
2023-02-02T10:49:46.296Z,7.33
2023-02-02T10:50:38.759Z,7.21
2023-02-02T10:51:46.277Z,7.26
2023-02-02T10:52:38.722Z,7.33
2023-02-02T10:53:38.706Z,7.22
2023-02-02T10:54:54.061Z,7.33
2023-02-02T10:55:39.720Z,7.46
2023-02-02T10:56:47.674Z,7.47
2023-02-02T10:57:46.201Z,7.57
2023-02-02T10:58:38.656Z,7.60
2023-02-02T10:59:46.175Z,7.61
2023-02-02T11:00:46.183Z,7.71
2023-02-02T11:01:38.674Z,7.55
2023-02-02T11:02:38.657Z,7.47
2023-02-02T11:03:38.606Z,7.60
2023-02-02T11:04:38.596Z,7.58
2023-02-02T11:05:38.583Z,7.78
2023-02-02T11:06:38.575Z,7.87
2023-02-02T11:07:38.565Z,7.94
2023-02-02T11:08:38.546Z,7.87
2023-02-02T11:09:38.566Z,7.84
2023-02-02T11:10:38.531Z,7.74
2023-02-02T11:11:38.552Z,7.71
2023-02-02T11:12:38.522Z,7.68
2023-02-02T11:13:38.491Z,7.73
2023-02-02T11:14:45.196Z,7.88
2023-02-02T11:15:39.482Z,7.91
2023-02-02T11:16:43.121Z,7.83
2023-02-02T11:17:39.472Z,7.78
2023-02-02T11:18:38.458Z,7.68
2023-02-02T11:19:38.429Z,7.57
2023-02-02T11:20:38.434Z,7.61
2023-02-02T11:21:38.407Z,7.61
2023-02-02T11:22:38.435Z,7.60
2023-02-02T11:23:38.398Z,7.62
2023-02-02T11:24:38.392Z,7.60
2023-02-02T11:25:38.372Z,7.44
2023-02-02T11:26:38.416Z,7.40
2023-02-02T11:27:38.378Z,7.39
2023-02-02T11:28:38.352Z,7.47
2023-02-02T11:29:38.330Z,7.43
2023-02-02T11:30:38.412Z,7.46
2023-02-02T11:31:38.434Z,7.43
2023-02-02T11:32:38.303Z,7.40
2023-02-02T11:33:38.289Z,7.31
2023-02-02T11:34:38.287Z,7.40
2023-02-02T11:35:38.263Z,7.46
2023-02-02T11:36:38.280Z,7.52
2023-02-02T11:37:38.262Z,7.62
2023-02-02T11:38:38.237Z,7.64
2023-02-02T11:39:38.214Z,7.76
2023-02-02T11:40:38.212Z,7.71
2023-02-02T11:41:38.195Z,7.71
2023-02-02T11:42:38.198Z,7.61
2023-02-02T11:43:38.216Z,7.74
2023-02-02T11:44:38.179Z,7.74
2023-02-02T11:45:38.154Z,7.74
2023-02-02T11:46:38.220Z,7.73
2023-02-02T11:47:38.150Z,7.71
2023-02-02T11:48:38.154Z,7.74
2023-02-02T11:49:38.131Z,7.80
2023-02-02T11:50:38.225Z,7.86
2023-02-02T11:51:38.093Z,7.86
2023-02-02T11:52:38.075Z,7.86
2023-02-02T11:53:38.085Z,7.96
2023-02-02T11:54:38.054Z,7.92
2023-02-02T11:55:38.059Z,7.95
2023-02-02T11:56:38.052Z,7.74
2023-02-02T11:57:38.019Z,7.80
2023-02-02T11:58:38.026Z,7.88
2023-02-02T11:59:38.024Z,7.81
2023-02-02T12:00:38.000Z,7.84
2023-02-02T12:01:38.031Z,7.73
2023-02-02T12:02:37.964Z,7.76
2023-02-02T12:03:37.966Z,7.68
2023-02-02T12:04:37.965Z,7.61
2023-02-02T12:05:37.979Z,7.61
2023-02-02T12:06:37.922Z,7.58
2023-02-02T12:07:37.925Z,7.62
2023-02-02T12:08:37.903Z,7.58
2023-02-02T12:09:37.899Z,7.43
2023-02-02T12:10:37.899Z,7.49
2023-02-02T12:11:37.885Z,7.47
2023-02-02T12:12:37.863Z,7.46
2023-02-02T12:13:37.860Z,7.40
2023-02-02T12:14:37.855Z,7.49
2023-02-02T12:15:37.846Z,7.47
2023-02-02T12:16:37.932Z,7.40
2023-02-02T12:17:37.816Z,7.36
2023-02-02T12:18:37.820Z,7.22
2023-02-02T12:19:37.795Z,7.15
2023-02-02T12:20:37.777Z,6.93
2023-02-02T12:21:37.774Z,6.91
2023-02-02T12:22:37.811Z,6.55
2023-02-02T12:23:37.766Z,6.34
2023-02-02T12:24:37.741Z,6.32
2023-02-02T12:25:37.721Z,6.43
2023-02-02T12:26:37.888Z,6.30
2023-02-02T12:27:37.721Z,6.25
2023-02-02T12:28:37.712Z,6.25
2023-02-02T12:29:37.700Z,6.16
2023-02-02T12:30:37.724Z,6.15
2023-02-02T12:31:37.730Z,6.15
2023-02-02T12:32:37.675Z,6.15
2023-02-02T12:33:37.673Z,6.15
2023-02-02T12:34:37.640Z,6.24
2023-02-02T12:35:37.622Z,6.30
2023-02-02T12:36:37.631Z,6.11
2023-02-02T12:37:37.619Z,6.13
2023-02-02T12:38:37.596Z,6.24
2023-02-02T12:39:37.590Z,6.25
2023-02-02T12:40:37.565Z,6.31
2023-02-02T12:41:37.619Z,6.27
2023-02-02T12:42:37.553Z,6.34
2023-02-02T12:43:37.555Z,6.35
2023-02-02T12:44:37.551Z,6.63
2023-02-02T12:45:37.573Z,6.71
2023-02-02T12:46:37.511Z,6.73
2023-02-02T12:47:37.517Z,6.92
2023-02-02T12:48:37.495Z,6.89
2023-02-02T12:49:37.491Z,7.03
2023-02-02T12:50:37.460Z,7.13
2023-02-02T12:51:37.475Z,7.16
2023-02-02T12:52:37.449Z,7.28
2023-02-02T12:53:37.434Z,7.26
2023-02-02T12:54:44.598Z,7.21
2023-02-02T12:55:38.426Z,7.36
2023-02-02T12:56:37.418Z,7.44
2023-02-02T12:57:37.390Z,7.47
2023-02-02T12:58:37.396Z,7.55
2023-02-02T12:59:37.366Z,7.60
2023-02-02T13:00:37.370Z,7.74
2023-02-02T13:01:37.344Z,7.62
2023-02-02T13:02:37.338Z,7.76
2023-02-02T13:03:37.370Z,7.66
2023-02-02T13:04:37.324Z,7.60
2023-02-02T13:05:37.307Z,7.31
2023-02-02T13:06:37.311Z,7.22
2023-02-02T13:07:37.300Z,6.92
2023-02-02T13:08:37.333Z,6.65
2023-02-02T13:09:37.277Z,6.64
2023-02-02T13:10:37.290Z,6.43
2023-02-02T13:11:37.270Z,6.37
2023-02-02T13:12:37.247Z,6.35
2023-02-02T13:13:37.214Z,6.25
2023-02-02T13:14:37.217Z,6.38
2023-02-02T13:15:37.209Z,6.31
2023-02-02T13:16:37.252Z,6.46
2023-02-02T13:17:37.176Z,6.34
2023-02-02T13:18:37.185Z,6.40